createdAt,value
2016-12-02T00:00:26.946Z,0
2016-12-02T00:00:55.019Z,0
2016-12-02T00:01:22.912Z,0
2016-12-02T00:01:50.802Z,0
2016-12-02T00:02:18.870Z,0
2016-12-02T00:02:46.893Z,0
2016-12-02T00:03:15.648Z,0
2016-12-02T00:03:43.540Z,0
2016-12-02T00:04:11.517Z,0
2016-12-02T00:04:40.371Z,0
2016-12-02T00:05:09.232Z,0
2016-12-02T00:05:37.305Z,0
2016-12-02T00:06:05.379Z,0
2016-12-02T00:06:36.564Z,0
2016-12-02T00:07:05.325Z,0
2016-12-02T00:07:33.297Z,0
2016-12-02T00:08:02.180Z,0
2016-12-02T00:08:30.160Z,0
2016-12-02T00:08:58.127Z,0
2016-12-02T00:09:26.891Z,0
2016-12-02T00:09:55.744Z,0
2016-12-02T00:10:24.595Z,0
2016-12-02T00:10:52.474Z,0
2016-12-02T00:11:20.774Z,0
2016-12-02T00:11:48.841Z,0
2016-12-02T00:12:16.910Z,0
2016-12-02T00:12:45.755Z,0
2016-12-02T00:13:13.828Z,0
2016-12-02T00:13:41.824Z,0
2016-12-02T00:14:09.808Z,0
2016-12-02T00:14:37.800Z,0
2016-12-02T00:15:06.653Z,0
2016-12-02T00:15:35.428Z,0
2016-12-02T00:16:04.276Z,0
2016-12-02T00:16:32.579Z,0
2016-12-02T00:17:01.438Z,0
2016-12-02T00:17:29.518Z,0
2016-12-02T00:17:58.364Z,0
2016-12-02T00:18:26.144Z,0
2016-12-02T00:18:54.994Z,0
2016-12-02T00:19:22.980Z,0
2016-12-02T00:19:51.827Z,0
2016-12-02T00:20:19.717Z,0
2016-12-02T00:20:48.565Z,0
2016-12-02T00:21:16.551Z,0
2016-12-02T00:21:44.553Z,0
2016-12-02T00:22:12.440Z,0
2016-12-02T00:22:42.219Z,0
2016-12-02T00:23:10.973Z,0
2016-12-02T00:23:40.511Z,0
2016-12-02T00:24:08.571Z,0
2016-12-02T00:24:36.652Z,0
2016-12-02T00:25:04.645Z,0
2016-12-02T00:25:33.392Z,0
2016-12-02T00:26:02.239Z,0
2016-12-02T00:26:30.987Z,0
2016-12-02T00:26:58.973Z,0
2016-12-02T00:27:26.756Z,0
2016-12-02T00:27:55.616Z,0
2016-12-02T00:28:23.791Z,0
2016-12-02T00:28:51.863Z,0
2016-12-02T00:29:19.747Z,0
2016-12-02T00:29:47.726Z,0
2016-12-02T00:30:16.573Z,0
2016-12-02T00:30:44.555Z,0
2016-12-02T00:31:12.535Z,0
2016-12-02T00:31:40.500Z,0
2016-12-02T00:32:09.261Z,0
2016-12-02T00:32:37.344Z,0
2016-12-02T00:33:05.330Z,0
2016-12-02T00:33:34.198Z,0
2016-12-02T00:34:03.056Z,0
2016-12-02T00:34:31.178Z,0
2016-12-02T00:35:37.340Z,0
2016-12-02T00:36:06.966Z,0
2016-12-02T00:36:34.954Z,0
2016-12-02T00:37:03.812Z,0
2016-12-02T00:37:32.656Z,0
2016-12-02T00:38:00.788Z,0
2016-12-02T00:38:28.863Z,0
2016-12-02T00:38:56.951Z,0
2016-12-02T00:39:25.794Z,0
2016-12-02T00:39:53.862Z,0
2016-12-02T00:40:21.940Z,0
2016-12-02T00:40:50.599Z,0
2016-12-02T00:41:18.576Z,0
2016-12-02T00:41:46.571Z,0
2016-12-02T00:42:14.646Z,0
2016-12-02T00:42:42.625Z,0
2016-12-02T00:43:11.483Z,0
2016-12-02T00:43:40.348Z,0
2016-12-02T00:44:09.018Z,0
2016-12-02T00:44:38.556Z,0
2016-12-02T00:45:06.634Z,0
2016-12-02T00:45:35.130Z,0
2016-12-02T00:46:03.096Z,0
2016-12-02T00:46:31.162Z,0
2016-12-02T00:46:59.921Z,0
2016-12-02T00:47:30.334Z,0
2016-12-02T00:47:58.313Z,0
2016-12-02T00:48:26.290Z,0
2016-12-02T00:48:54.363Z,0
2016-12-02T00:49:23.213Z,0
2016-12-02T00:49:52.062Z,0
2016-12-02T00:50:21.635Z,0
2016-12-02T00:50:49.915Z,0
2016-12-02T00:51:17.884Z,0
2016-12-02T00:51:47.421Z,0
2016-12-02T00:52:16.078Z,0
2016-12-02T00:52:44.934Z,0
2016-12-02T00:53:13.154Z,0
2016-12-02T00:53:41.226Z,0
2016-12-02T00:54:09.194Z,0
2016-12-02T00:54:37.260Z,0
2016-12-02T00:55:06.009Z,0
2016-12-02T00:55:34.771Z,0
2016-12-02T00:56:05.961Z,0
2016-12-02T00:56:34.809Z,0
2016-12-02T00:57:02.698Z,0
2016-12-02T00:57:30.763Z,0
2016-12-02T00:58:00.380Z,0
2016-12-02T00:58:29.221Z,0
2016-12-02T00:58:57.022Z,0
2016-12-02T00:59:25.085Z,0
2016-12-02T00:59:53.931Z,0
2016-12-02T01:00:22.775Z,0
2016-12-02T01:00:51.621Z,0
2016-12-02T01:01:19.498Z,0
2016-12-02T01:01:48.346Z,0
2016-12-02T01:02:17.191Z,0
2016-12-02T01:02:46.818Z,0
2016-12-02T01:03:14.789Z,0
2016-12-02T01:03:42.755Z,0
2016-12-02T01:04:11.607Z,0
2016-12-02T01:04:39.584Z,0
2016-12-02T01:05:07.556Z,0
2016-12-02T01:05:35.619Z,0
2016-12-02T01:06:05.241Z,0
2016-12-02T01:06:33.313Z,0
2016-12-02T01:07:02.147Z,0
2016-12-02T01:07:30.903Z,0
2016-12-02T01:07:58.970Z,0
2016-12-02T01:08:27.192Z,0
2016-12-02T01:08:55.256Z,0
2016-12-02T01:09:23.140Z,0
2016-12-02T01:09:51.981Z,0
2016-12-02T01:10:20.294Z,0
2016-12-02T01:10:49.131Z,0
2016-12-02T01:11:17.970Z,0
2016-12-02T01:11:46.824Z,0
2016-12-02T01:12:15.664Z,0
2016-12-02T01:12:43.731Z,0
2016-12-02T01:13:12.567Z,0
2016-12-02T01:13:40.641Z,0
2016-12-02T01:14:10.181Z,0
2016-12-02T01:15:16.432Z,0
2016-12-02T01:15:46.052Z,0
2016-12-02T01:16:14.727Z,0
2016-12-02T01:16:42.794Z,0
2016-12-02T01:17:11.648Z,0
2016-12-02T01:17:40.315Z,0
2016-12-02T01:18:08.118Z,0
2016-12-02T01:18:36.783Z,0
2016-12-02T01:19:04.656Z,0
2016-12-02T01:19:33.498Z,0
2016-12-02T01:20:02.250Z,0
2016-12-02T01:20:30.311Z,0
2016-12-02T01:20:58.284Z,0
2016-12-02T01:21:26.261Z,0
2016-12-02T01:21:55.102Z,0
2016-12-02T01:22:23.169Z,0
2016-12-02T01:22:52.802Z,0
2016-12-02T01:23:21.797Z,0
2016-12-02T01:23:49.863Z,0
2016-12-02T01:24:18.609Z,0
2016-12-02T01:24:46.592Z,0
2016-12-02T01:25:16.221Z,0
2016-12-02T01:25:44.276Z,0
2016-12-02T01:26:12.352Z,0
2016-12-02T01:26:41.102Z,0
2016-12-02T01:27:09.947Z,0
2016-12-02T01:27:38.791Z,0
2016-12-02T01:28:08.410Z,0
2016-12-02T01:28:37.180Z,0
2016-12-02T01:29:06.031Z,0
2016-12-02T01:29:34.882Z,0
2016-12-02T01:30:02.871Z,0
2016-12-02T01:30:32.401Z,0
2016-12-02T01:31:01.156Z,0
2016-12-02T01:31:29.215Z,0
2016-12-02T01:31:57.963Z,0
2016-12-02T01:32:25.985Z,0
2016-12-02T01:32:53.965Z,0
2016-12-02T01:33:21.946Z,0
2016-12-02T01:33:50.024Z,0
2016-12-02T01:34:18.100Z,0
2016-12-02T01:34:46.167Z,0
2016-12-02T01:35:14.932Z,0
2016-12-02T01:35:43.014Z,0
2016-12-02T01:36:11.876Z,0
2016-12-02T01:36:39.945Z,0
2016-12-02T01:37:07.845Z,0
2016-12-02T01:37:35.580Z,0
2016-12-02T01:38:03.654Z,0
2016-12-02T01:38:31.887Z,0
2016-12-02T01:38:59.966Z,0
2016-12-02T01:39:27.935Z,0
2016-12-02T01:39:56.797Z,0
2016-12-02T01:40:25.657Z,0
2016-12-02T01:40:53.554Z,0
2016-12-02T01:41:21.545Z,0
2016-12-02T01:41:49.621Z,0
2016-12-02T01:42:17.703Z,0
2016-12-02T01:42:46.457Z,0
2016-12-02T01:43:15.537Z,0
2016-12-02T01:43:43.523Z,0
2016-12-02T01:44:12.312Z,0
2016-12-02T01:44:40.377Z,0
2016-12-02T01:45:08.443Z,0
2016-12-02T01:45:37.294Z,0
2016-12-02T01:46:05.370Z,0
2016-12-02T01:46:34.984Z,0
2016-12-02T01:47:03.823Z,0
2016-12-02T01:47:31.698Z,0
2016-12-02T01:48:00.544Z,0
2016-12-02T01:48:28.518Z,0
2016-12-02T01:48:56.494Z,0
2016-12-02T01:49:26.120Z,0
2016-12-02T01:49:54.222Z,0
2016-12-02T01:50:22.202Z,0
2016-12-02T01:50:51.036Z,0
2016-12-02T01:51:19.885Z,0
2016-12-02T01:51:48.723Z,0
2016-12-02T01:52:16.607Z,0
2016-12-02T01:52:45.271Z,0
2016-12-02T01:53:13.670Z,0
2016-12-02T01:53:41.898Z,0
2016-12-02T01:54:48.243Z,0
2016-12-02T01:55:17.085Z,0
2016-12-02T01:55:45.066Z,0
2016-12-02T01:56:13.136Z,0
2016-12-02T01:56:41.885Z,0
2016-12-02T01:57:09.757Z,0
2016-12-02T01:57:37.653Z,0
2016-12-02T01:58:05.627Z,0
2016-12-02T01:58:33.592Z,0
2016-12-02T01:59:02.443Z,0
2016-12-02T01:59:30.515Z,0
2016-12-02T02:00:00.135Z,0
2016-12-02T02:00:28.018Z,0
2016-12-02T02:00:56.089Z,0
2016-12-02T02:01:24.932Z,0
2016-12-02T02:01:52.929Z,0
2016-12-02T02:02:21.017Z,0
2016-12-02T02:02:49.860Z,0
2016-12-02T02:03:18.633Z,0
2016-12-02T02:03:46.615Z,0
2016-12-02T02:04:15.384Z,0
2016-12-02T02:04:43.465Z,0
2016-12-02T02:05:12.308Z,0
2016-12-02T02:05:40.284Z,0
2016-12-02T02:06:09.145Z,0
2016-12-02T02:06:38.013Z,0
2016-12-02T02:07:06.888Z,0
2016-12-02T02:07:34.869Z,0
2016-12-02T02:08:02.847Z,0
2016-12-02T02:08:31.695Z,0
2016-12-02T02:09:01.474Z,0
2016-12-02T02:09:29.552Z,0
2016-12-02T02:09:58.392Z,0
2016-12-02T21:45:18.477Z,28
2016-12-02T21:45:46.545Z,24
2016-12-02T21:46:15.303Z,24
2016-12-02T21:46:44.943Z,20
2016-12-02T21:47:13.026Z,20
2016-12-02T21:47:41.882Z,16
2016-12-02T21:48:09.978Z,16
2016-12-02T21:48:37.963Z,16
2016-12-02T21:49:05.953Z,12
2016-12-02T21:49:34.808Z,16
2016-12-02T21:50:02.882Z,12
2016-12-02T21:50:31.014Z,12
2016-12-02T21:50:58.994Z,12
2016-12-02T21:51:27.080Z,8
2016-12-02T21:51:55.051Z,12
2016-12-02T21:52:23.120Z,8
2016-12-02T21:52:51.119Z,8
2016-12-02T21:53:19.971Z,8
2016-12-02T21:53:48.820Z,8
2016-12-02T21:54:16.814Z,4
2016-12-02T21:54:45.582Z,4
2016-12-02T21:55:13.593Z,8
2016-12-02T21:55:41.678Z,4
2016-12-02T21:56:09.747Z,4
